createdAt,value
2018-07-24T00:00:49.485Z,11.45
2018-07-24T00:15:51.376Z,10.35
2018-07-24T00:30:51.075Z,9.85
2018-07-24T00:45:50.521Z,8.85
2018-07-24T01:00:52.730Z,9.63
2018-07-24T01:15:50.805Z,9.28
2018-07-24T01:30:50.982Z,10.48
2018-07-24T01:45:52.943Z,9.78
2018-07-24T02:00:53.649Z,11.08
2018-07-24T02:15:51.048Z,10.90
2018-07-24T02:30:50.366Z,10.70
2018-07-24T02:45:52.820Z,10.75
2018-07-24T03:00:52.268Z,11.33
2018-07-24T03:15:50.483Z,12.63
2018-07-24T03:30:50.940Z,12.07
2018-07-24T03:45:52.933Z,13.22
2018-07-24T04:00:50.974Z,12.60
2018-07-24T04:15:51.116Z,13.53
2018-07-24T04:30:50.210Z,17.20
2018-07-24T04:45:49.668Z,13.62
2018-07-24T05:00:50.995Z,14.50
2018-07-24T05:15:49.822Z,12.47
2018-07-24T05:30:51.692Z,12.73
2018-07-24T05:45:50.731Z,13.20
2018-07-24T06:00:52.531Z,15.23
2018-07-24T06:15:51.537Z,14.85
2018-07-24T06:30:50.907Z,16.42
2018-07-24T06:45:51.424Z,15.15
2018-07-24T07:00:49.566Z,13.78
2018-07-24T07:15:53.587Z,13.68
2018-07-24T07:30:50.322Z,12.85
2018-07-24T07:45:50.236Z,12.73
2018-07-24T08:00:50.535Z,12.93
2018-07-24T08:15:50.456Z,13.53
2018-07-24T08:30:50.935Z,13.30
2018-07-24T08:45:52.869Z,13.30
2018-07-24T09:00:53.580Z,12.47
2018-07-24T09:15:50.958Z,11.93
2018-07-24T09:30:50.350Z,10.75
2018-07-24T09:45:50.379Z,11.40
2018-07-24T10:00:55.423Z,10.80
2018-07-24T10:15:50.245Z,11.38
2018-07-24T10:30:50.714Z,11.60
2018-07-24T10:45:57.415Z,10.75
2018-07-24T11:00:50.911Z,10.63
2018-07-24T11:15:51.441Z,10.90
2018-07-24T11:30:51.282Z,10.70
2018-07-24T11:45:52.189Z,13.77
2018-07-24T12:00:51.229Z,12.10
2018-07-24T12:15:51.137Z,10.00
2018-07-24T12:30:52.706Z,10.93
2018-07-24T12:45:51.281Z,11.33
2018-07-24T13:00:51.544Z,11.80
2018-07-24T13:15:50.292Z,13.10
2018-07-24T13:30:54.782Z,14.80
2018-07-24T13:45:52.392Z,14.60
2018-07-24T14:00:53.068Z,15.95
2018-07-24T14:15:53.259Z,16.32
2018-07-24T14:30:50.987Z,16.25
2018-07-24T14:45:51.396Z,16.45
2018-07-24T15:00:50.958Z,16.50
2018-07-24T15:15:56.218Z,13.88
2018-07-24T15:30:50.899Z,13.38
2018-07-24T15:45:52.956Z,13.98
2018-07-24T16:00:51.301Z,14.87
2018-07-24T16:15:50.664Z,14.93
2018-07-24T16:30:50.923Z,16.50
2018-07-24T16:45:52.843Z,18.80
2018-07-24T17:00:50.890Z,17.92
2018-07-24T17:15:50.982Z,18.23
2018-07-24T17:30:49.899Z,20.65
2018-07-24T17:45:55.620Z,19.85
2018-07-24T18:00:49.937Z,21.50
2018-07-24T18:15:51.908Z,23.10
2018-07-24T18:30:50.739Z,19.55
2018-07-24T18:45:50.775Z,17.30
2018-07-24T19:00:51.243Z,16.87
2018-07-24T19:15:50.804Z,17.50
2018-07-24T19:30:52.225Z,16.97
2018-07-24T19:45:53.281Z,17.55
2018-07-24T20:00:50.199Z,16.40
2018-07-24T20:15:50.390Z,27.15
2018-07-24T20:30:52.533Z,19.77
2018-07-24T20:45:52.645Z,17.50
2018-07-24T21:00:56.626Z,17.07
2018-07-24T21:15:53.548Z,17.55
2018-07-24T21:30:51.743Z,18.02
2018-07-24T21:45:53.391Z,16.82
2018-07-24T22:15:53.293Z,15.88
2018-07-24T22:30:52.633Z,16.30
2018-07-24T22:45:50.596Z,16.65
2018-07-24T23:00:50.646Z,16.82
2018-07-24T23:15:55.036Z,15.68
2018-07-24T23:30:53.136Z,15.98
2018-07-24T23:45:51.113Z,15.35
